sensor_id;sensor_type;location;lat;lon;timestamp;P1;durP1;ratioP1;P2;durP2;ratioP2
12958;SDS011;6544;51.666;6.634;2023-02-02T00:01:56;10.57;;;2.97;;
12958;SDS011;6544;51.666;6.634;2023-02-02T00:04:25;10.73;;;3.43;;
12958;SDS011;6544;51.666;6.634;2023-02-02T00:06:53;10.57;;;2.63;;
12958;SDS011;6544;51.666;6.634;2023-02-02T00:09:21;8.97;;;2.83;;
12958;SDS011;6544;51.666;6.634;2023-02-02T00:11:49;11.30;;;2.93;;
12958;SDS011;6544;51.666;6.634;2023-02-02T00:14:16;8.27;;;2.60;;
12958;SDS011;6544;51.666;6.634;2023-02-02T00:16:43;7.17;;;2.80;;
12958;SDS011;6544;51.666;6.634;2023-02-02T00:19:12;9.30;;;2.97;;
12958;SDS011;6544;51.666;6.634;2023-02-02T00:21:42;8.27;;;2.70;;
12958;SDS011;6544;51.666;6.634;2023-02-02T00:24:09;12.73;;;2.83;;
12958;SDS011;6544;51.666;6.634;2023-02-02T00:26:38;8.67;;;2.80;;
12958;SDS011;6544;51.666;6.634;2023-02-02T00:29:06;9.40;;;2.87;;
12958;SDS011;6544;51.666;6.634;2023-02-02T00:31:37;13.50;;;3.53;;
12958;SDS011;6544;51.666;6.634;2023-02-02T00:34:04;9.43;;;3.47;;
12958;SDS011;6544;51.666;6.634;2023-02-02T00:36:31;12.97;;;3.30;;
12958;SDS011;6544;51.666;6.634;2023-02-02T00:38:59;13.77;;;3.72;;
12958;SDS011;6544;51.666;6.634;2023-02-02T00:41:26;11.97;;;3.20;;
12958;SDS011;6544;51.666;6.634;2023-02-02T00:43:53;13.50;;;3.50;;
12958;SDS011;6544;51.666;6.634;2023-02-02T00:46:33;6.32;;;3.00;;
12958;SDS011;6544;51.666;6.634;2023-02-02T00:49:03;9.07;;;3.42;;
12958;SDS011;6544;51.666;6.634;2023-02-02T00:51:30;12.50;;;3.63;;
12958;SDS011;6544;51.666;6.634;2023-02-02T00:53:57;11.60;;;4.10;;
12958;SDS011;6544;51.666;6.634;2023-02-02T00:56:25;10.60;;;3.43;;
12958;SDS011;6544;51.666;6.634;2023-02-02T00:58:52;10.35;;;3.40;;
12958;SDS011;6544;51.666;6.634;2023-02-02T01:01:19;14.38;;;4.10;;
12958;SDS011;6544;51.666;6.634;2023-02-02T01:03:48;10.52;;;3.80;;
12958;SDS011;6544;51.666;6.634;2023-02-02T01:06:15;13.52;;;3.60;;
12958;SDS011;6544;51.666;6.634;2023-02-02T01:08:42;10.35;;;3.47;;
12958;SDS011;6544;51.666;6.634;2023-02-02T01:11:09;10.60;;;3.42;;
12958;SDS011;6544;51.666;6.634;2023-02-02T01:13:38;12.90;;;3.80;;
12958;SDS011;6544;51.666;6.634;2023-02-02T01:16:05;11.38;;;3.47;;
12958;SDS011;6544;51.666;6.634;2023-02-02T01:18:32;15.55;;;4.00;;
12958;SDS011;6544;51.666;6.634;2023-02-02T01:20:59;14.25;;;4.22;;
12958;SDS011;6544;51.666;6.634;2023-02-02T01:23:28;11.43;;;4.10;;
12958;SDS011;6544;51.666;6.634;2023-02-02T01:25:57;15.32;;;5.18;;
12958;SDS011;6544;51.666;6.634;2023-02-02T01:28:26;17.30;;;4.70;;
12958;SDS011;6544;51.666;6.634;2023-02-02T01:30:55;15.20;;;5.47;;
12958;SDS011;6544;51.666;6.634;2023-02-02T01:33:23;20.57;;;5.90;;
12958;SDS011;6544;51.666;6.634;2023-02-02T01:35:51;25.27;;;6.28;;
12958;SDS011;6544;51.666;6.634;2023-02-02T01:38:19;21.17;;;6.40;;
12958;SDS011;6544;51.666;6.634;2023-02-02T01:40:48;16.42;;;5.68;;
12958;SDS011;6544;51.666;6.634;2023-02-02T01:43:19;20.70;;;6.38;;
12958;SDS011;6544;51.666;6.634;2023-02-02T01:45:49;19.27;;;6.27;;
12958;SDS011;6544;51.666;6.634;2023-02-02T01:48:17;25.13;;;7.17;;
12958;SDS011;6544;51.666;6.634;2023-02-02T01:50:47;22.50;;;6.20;;
12958;SDS011;6544;51.666;6.634;2023-02-02T01:53:16;26.67;;;6.83;;
12958;SDS011;6544;51.666;6.634;2023-02-02T01:55:44;27.10;;;6.13;;
12958;SDS011;6544;51.666;6.634;2023-02-02T01:58:14;24.15;;;5.70;;
12958;SDS011;6544;51.666;6.634;2023-02-02T02:00:44;29.23;;;6.20;;
12958;SDS011;6544;51.666;6.634;2023-02-02T02:03:17;20.83;;;5.78;;
12958;SDS011;6544;51.666;6.634;2023-02-02T02:05:49;20.47;;;5.67;;
12958;SDS011;6544;51.666;6.634;2023-02-02T02:08:20;23.77;;;5.53;;
12958;SDS011;6544;51.666;6.634;2023-02-02T02:10:48;21.60;;;5.33;;
12958;SDS011;6544;51.666;6.634;2023-02-02T02:13:15;24.80;;;5.07;;
12958;SDS011;6544;51.666;6.634;2023-02-02T02:15:44;23.47;;;4.77;;
12958;SDS011;6544;51.666;6.634;2023-02-02T02:18:43;19.80;;;4.90;;
12958;SDS011;6544;51.666;6.634;2023-02-02T02:21:28;26.07;;;5.63;;
12958;SDS011;6544;51.666;6.634;2023-02-02T02:24:35;22.08;;;4.78;;
12958;SDS011;6544;51.666;6.634;2023-02-02T02:27:57;21.15;;;4.75;;
12958;SDS011;6544;51.666;6.634;2023-02-02T02:30:40;18.73;;;4.85;;
12958;SDS011;6544;51.666;6.634;2023-02-02T02:33:21;13.73;;;4.35;;
12958;SDS011;6544;51.666;6.634;2023-02-02T02:35:53;14.90;;;4.07;;
12958;SDS011;6544;51.666;6.634;2023-02-02T02:38:29;12.85;;;3.70;;
12958;SDS011;6544;51.666;6.634;2023-02-02T02:41:02;11.30;;;3.77;;
12958;SDS011;6544;51.666;6.634;2023-02-02T02:43:36;14.32;;;4.38;;
12958;SDS011;6544;51.666;6.634;2023-02-02T02:46:05;15.73;;;4.60;;
12958;SDS011;6544;51.666;6.634;2023-02-02T02:48:34;17.40;;;5.00;;
12958;SDS011;6544;51.666;6.634;2023-02-02T02:51:04;18.35;;;5.15;;
12958;SDS011;6544;51.666;6.634;2023-02-02T02:53:32;20.93;;;5.40;;
12958;SDS011;6544;51.666;6.634;2023-02-02T02:56:02;20.20;;;5.07;;
12958;SDS011;6544;51.666;6.634;2023-02-02T02:58:38;15.20;;;4.57;;
12958;SDS011;6544;51.666;6.634;2023-02-02T03:01:13;17.13;;;5.30;;
12958;SDS011;6544;51.666;6.634;2023-02-02T03:03:51;19.80;;;5.93;;
12958;SDS011;6544;51.666;6.634;2023-02-02T03:06:28;23.03;;;5.77;;
12958;SDS011;6544;51.666;6.634;2023-02-02T03:09:03;21.43;;;5.77;;
12958;SDS011;6544;51.666;6.634;2023-02-02T03:11:34;18.47;;;5.50;;
12958;SDS011;6544;51.666;6.634;2023-02-02T03:14:02;25.90;;;5.77;;
12958;SDS011;6544;51.666;6.634;2023-02-02T03:16:33;20.33;;;6.10;;
12958;SDS011;6544;51.666;6.634;2023-02-02T03:19:02;21.25;;;5.80;;
12958;SDS011;6544;51.666;6.634;2023-02-02T03:21:29;19.43;;;5.87;;
12958;SDS011;6544;51.666;6.634;2023-02-02T03:23:56;13.68;;;5.50;;
12958;SDS011;6544;51.666;6.634;2023-02-02T03:26:24;16.33;;;5.70;;
12958;SDS011;6544;51.666;6.634;2023-02-02T03:28:51;17.13;;;5.03;;
12958;SDS011;6544;51.666;6.634;2023-02-02T03:31:20;16.87;;;4.70;;
12958;SDS011;6544;51.666;6.634;2023-02-02T03:33:47;11.40;;;4.77;;
12958;SDS011;6544;51.666;6.634;2023-02-02T03:36:15;18.80;;;4.65;;
12958;SDS011;6544;51.666;6.634;2023-02-02T03:38:42;14.82;;;4.20;;
12958;SDS011;6544;51.666;6.634;2023-02-02T03:41:09;12.48;;;4.10;;
12958;SDS011;6544;51.666;6.634;2023-02-02T03:43:36;15.13;;;4.03;;
12958;SDS011;6544;51.666;6.634;2023-02-02T03:46:03;10.77;;;4.20;;
12958;SDS011;6544;51.666;6.634;2023-02-02T03:48:33;16.63;;;4.60;;
12958;SDS011;6544;51.666;6.634;2023-02-02T03:51:04;13.77;;;4.88;;
12958;SDS011;6544;51.666;6.634;2023-02-02T03:53:33;15.15;;;4.45;;
12958;SDS011;6544;51.666;6.634;2023-02-02T03:56:00;13.70;;;4.35;;
12958;SDS011;6544;51.666;6.634;2023-02-02T03:58:27;12.83;;;4.00;;
12958;SDS011;6544;51.666;6.634;2023-02-02T04:00:57;15.40;;;4.60;;
12958;SDS011;6544;51.666;6.634;2023-02-02T04:03:27;12.68;;;4.40;;
12958;SDS011;6544;51.666;6.634;2023-02-02T04:05:54;11.10;;;4.25;;
12958;SDS011;6544;51.666;6.634;2023-02-02T04:08:21;15.00;;;4.63;;
12958;SDS011;6544;51.666;6.634;2023-02-02T04:10:49;18.98;;;5.45;;
12958;SDS011;6544;51.666;6.634;2023-02-02T04:13:16;10.95;;;4.97;;
12958;SDS011;6544;51.666;6.634;2023-02-02T04:15:43;14.80;;;5.80;;
12958;SDS011;6544;51.666;6.634;2023-02-02T04:18:10;13.17;;;5.17;;
12958;SDS011;6544;51.666;6.634;2023-02-02T04:20:37;15.13;;;5.80;;
12958;SDS011;6544;51.666;6.634;2023-02-02T04:23:03;13.02;;;5.63;;
12958;SDS011;6544;51.666;6.634;2023-02-02T04:25:30;13.63;;;5.63;;
12958;SDS011;6544;51.666;6.634;2023-02-02T04:27:59;15.85;;;6.28;;
12958;SDS011;6544;51.666;6.634;2023-02-02T04:30:25;16.45;;;6.40;;
12958;SDS011;6544;51.666;6.634;2023-02-02T04:32:53;18.50;;;6.90;;
12958;SDS011;6544;51.666;6.634;2023-02-02T04:35:20;17.38;;;6.93;;
12958;SDS011;6544;51.666;6.634;2023-02-02T04:37:47;24.77;;;7.75;;
12958;SDS011;6544;51.666;6.634;2023-02-02T04:40:14;23.20;;;7.55;;
12958;SDS011;6544;51.666;6.634;2023-02-02T04:42:40;23.35;;;6.53;;
12958;SDS011;6544;51.666;6.634;2023-02-02T04:45:11;25.52;;;7.43;;
12958;SDS011;6544;51.666;6.634;2023-02-02T04:47:37;30.90;;;6.80;;
12958;SDS011;6544;51.666;6.634;2023-02-02T04:50:05;26.08;;;6.57;;
12958;SDS011;6544;51.666;6.634;2023-02-02T04:52:33;24.50;;;6.65;;
12958;SDS011;6544;51.666;6.634;2023-02-02T04:55:00;28.25;;;6.93;;
12958;SDS011;6544;51.666;6.634;2023-02-02T04:57:27;21.58;;;6.03;;
12958;SDS011;6544;51.666;6.634;2023-02-02T04:59:54;26.52;;;6.35;;
12958;SDS011;6544;51.666;6.634;2023-02-02T05:02:22;23.42;;;6.05;;
12958;SDS011;6544;51.666;6.634;2023-02-02T05:04:49;28.70;;;6.13;;
12958;SDS011;6544;51.666;6.634;2023-02-02T05:07:16;27.15;;;6.05;;
12958;SDS011;6544;51.666;6.634;2023-02-02T05:09:42;27.27;;;6.95;;
12958;SDS011;6544;51.666;6.634;2023-02-02T05:12:09;22.70;;;5.75;;
12958;SDS011;6544;51.666;6.634;2023-02-02T05:14:36;30.20;;;6.77;;
12958;SDS011;6544;51.666;6.634;2023-02-02T05:17:03;26.58;;;6.15;;
12958;SDS011;6544;51.666;6.634;2023-02-02T05:19:31;29.48;;;6.78;;
12958;SDS011;6544;51.666;6.634;2023-02-02T05:21:58;21.08;;;5.80;;
12958;SDS011;6544;51.666;6.634;2023-02-02T05:24:25;26.42;;;6.20;;
12958;SDS011;6544;51.666;6.634;2023-02-02T05:26:52;23.85;;;6.40;;
12958;SDS011;6544;51.666;6.634;2023-02-02T05:29:22;26.60;;;6.63;;
12958;SDS011;6544;51.666;6.634;2023-02-02T05:31:49;23.58;;;5.72;;
12958;SDS011;6544;51.666;6.634;2023-02-02T05:34:16;21.08;;;6.47;;
12958;SDS011;6544;51.666;6.634;2023-02-02T05:36:44;26.20;;;6.00;;
12958;SDS011;6544;51.666;6.634;2023-02-02T05:39:11;29.95;;;7.13;;
12958;SDS011;6544;51.666;6.634;2023-02-02T05:41:38;26.88;;;5.80;;
12958;SDS011;6544;51.666;6.634;2023-02-02T05:44:05;25.25;;;6.22;;
12958;SDS011;6544;51.666;6.634;2023-02-02T05:46:34;30.75;;;6.72;;
12958;SDS011;6544;51.666;6.634;2023-02-02T05:49:01;25.08;;;6.55;;
12958;SDS011;6544;51.666;6.634;2023-02-02T05:51:30;25.33;;;6.18;;
12958;SDS011;6544;51.666;6.634;2023-02-02T05:54:00;29.50;;;5.90;;
12958;SDS011;6544;51.666;6.634;2023-02-02T05:56:27;34.13;;;7.32;;
12958;SDS011;6544;51.666;6.634;2023-02-02T05:58:54;22.92;;;6.03;;
12958;SDS011;6544;51.666;6.634;2023-02-02T06:01:21;23.75;;;5.80;;
12958;SDS011;6544;51.666;6.634;2023-02-02T06:03:48;27.55;;;6.80;;
12958;SDS011;6544;51.666;6.634;2023-02-02T06:06:15;25.05;;;5.90;;
12958;SDS011;6544;51.666;6.634;2023-02-02T06:08:42;21.80;;;5.68;;
12958;SDS011;6544;51.666;6.634;2023-02-02T06:11:10;24.35;;;6.18;;
12958;SDS011;6544;51.666;6.634;2023-02-02T06:13:38;27.27;;;6.53;;
12958;SDS011;6544;51.666;6.634;2023-02-02T06:16:05;25.08;;;6.28;;
12958;SDS011;6544;51.666;6.634;2023-02-02T06:18:33;27.75;;;6.20;;
12958;SDS011;6544;51.666;6.634;2023-02-02T06:21:00;31.55;;;6.30;;
12958;SDS011;6544;51.666;6.634;2023-02-02T06:23:29;28.35;;;6.53;;
12958;SDS011;6544;51.666;6.634;2023-02-02T06:25:56;26.92;;;6.03;;
12958;SDS011;6544;51.666;6.634;2023-02-02T06:28:25;24.98;;;6.07;;
12958;SDS011;6544;51.666;6.634;2023-02-02T06:30:51;18.77;;;5.57;;
12958;SDS011;6544;51.666;6.634;2023-02-02T06:33:18;21.70;;;6.55;;
12958;SDS011;6544;51.666;6.634;2023-02-02T06:35:45;23.95;;;6.10;;
12958;SDS011;6544;51.666;6.634;2023-02-02T06:38:12;16.88;;;4.85;;
12958;SDS011;6544;51.666;6.634;2023-02-02T06:40:39;22.75;;;6.25;;
12958;SDS011;6544;51.666;6.634;2023-02-02T06:43:06;23.35;;;5.63;;
12958;SDS011;6544;51.666;6.634;2023-02-02T06:45:36;19.75;;;5.47;;
12958;SDS011;6544;51.666;6.634;2023-02-02T06:48:04;19.73;;;5.88;;
12958;SDS011;6544;51.666;6.634;2023-02-02T06:50:34;22.95;;;5.85;;
12958;SDS011;6544;51.666;6.634;2023-02-02T06:53:02;19.90;;;5.53;;
12958;SDS011;6544;51.666;6.634;2023-02-02T06:55:29;23.90;;;6.57;;
12958;SDS011;6544;51.666;6.634;2023-02-02T06:57:56;25.08;;;5.80;;
12958;SDS011;6544;51.666;6.634;2023-02-02T07:00:24;20.52;;;5.88;;
12958;SDS011;6544;51.666;6.634;2023-02-02T07:02:53;30.52;;;6.35;;
12958;SDS011;6544;51.666;6.634;2023-02-02T07:05:20;23.50;;;6.30;;
12958;SDS011;6544;51.666;6.634;2023-02-02T07:07:47;26.48;;;6.63;;
12958;SDS011;6544;51.666;6.634;2023-02-02T07:10:15;22.17;;;6.55;;
12958;SDS011;6544;51.666;6.634;2023-02-02T07:12:42;26.20;;;6.45;;
12958;SDS011;6544;51.666;6.634;2023-02-02T07:15:10;20.63;;;6.25;;
12958;SDS011;6544;51.666;6.634;2023-02-02T07:17:36;19.83;;;6.00;;
12958;SDS011;6544;51.666;6.634;2023-02-02T07:20:05;22.02;;;6.60;;
12958;SDS011;6544;51.666;6.634;2023-02-02T07:22:33;23.17;;;6.68;;
12958;SDS011;6544;51.666;6.634;2023-02-02T07:25:03;24.83;;;7.20;;
12958;SDS011;6544;51.666;6.634;2023-02-02T07:27:31;21.83;;;6.70;;
12958;SDS011;6544;51.666;6.634;2023-02-02T07:29:57;27.83;;;7.13;;
12958;SDS011;6544;51.666;6.634;2023-02-02T07:32:24;21.70;;;6.63;;
12958;SDS011;6544;51.666;6.634;2023-02-02T07:34:51;25.35;;;6.18;;
12958;SDS011;6544;51.666;6.634;2023-02-02T07:37:20;34.17;;;7.35;;
12958;SDS011;6544;51.666;6.634;2023-02-02T07:39:46;24.63;;;6.78;;
12958;SDS011;6544;51.666;6.634;2023-02-02T07:42:13;21.63;;;6.78;;
12958;SDS011;6544;51.666;6.634;2023-02-02T07:44:40;25.33;;;7.75;;
12958;SDS011;6544;51.666;6.634;2023-02-02T07:47:07;21.98;;;6.70;;
12958;SDS011;6544;51.666;6.634;2023-02-02T07:49:34;21.95;;;6.70;;
12958;SDS011;6544;51.666;6.634;2023-02-02T07:52:01;18.45;;;6.78;;
12958;SDS011;6544;51.666;6.634;2023-02-02T07:54:29;22.15;;;7.18;;
12958;SDS011;6544;51.666;6.634;2023-02-02T07:56:56;25.52;;;7.30;;
12958;SDS011;6544;51.666;6.634;2023-02-02T07:59:25;22.60;;;7.57;;
12958;SDS011;6544;51.666;6.634;2023-02-02T08:01:51;22.73;;;7.72;;
12958;SDS011;6544;51.666;6.634;2023-02-02T08:04:18;27.23;;;7.55;;
12958;SDS011;6544;51.666;6.634;2023-02-02T08:06:45;19.02;;;7.53;;
12958;SDS011;6544;51.666;6.634;2023-02-02T08:09:12;24.10;;;6.90;;
12958;SDS011;6544;51.666;6.634;2023-02-02T08:11:40;25.63;;;6.95;;
12958;SDS011;6544;51.666;6.634;2023-02-02T08:14:09;23.13;;;7.28;;
12958;SDS011;6544;51.666;6.634;2023-02-02T08:16:38;23.35;;;7.72;;
12958;SDS011;6544;51.666;6.634;2023-02-02T08:19:05;23.33;;;7.45;;
12958;SDS011;6544;51.666;6.634;2023-02-02T08:21:32;20.70;;;6.97;;
12958;SDS011;6544;51.666;6.634;2023-02-02T08:23:59;22.73;;;6.88;;
12958;SDS011;6544;51.666;6.634;2023-02-02T08:26:27;19.38;;;6.65;;
12958;SDS011;6544;51.666;6.634;2023-02-02T08:28:57;23.35;;;6.88;;
12958;SDS011;6544;51.666;6.634;2023-02-02T08:31:26;29.02;;;7.80;;
12958;SDS011;6544;51.666;6.634;2023-02-02T08:33:56;19.95;;;7.85;;
12958;SDS011;6544;51.666;6.634;2023-02-02T08:36:23;25.35;;;8.13;;
12958;SDS011;6544;51.666;6.634;2023-02-02T08:38:51;25.83;;;7.75;;
12958;SDS011;6544;51.666;6.634;2023-02-02T08:41:19;22.65;;;7.68;;
12958;SDS011;6544;51.666;6.634;2023-02-02T08:43:47;22.38;;;8.13;;
12958;SDS011;6544;51.666;6.634;2023-02-02T08:46:17;28.73;;;8.80;;
12958;SDS011;6544;51.666;6.634;2023-02-02T08:48:45;25.50;;;8.43;;
12958;SDS011;6544;51.666;6.634;2023-02-02T08:51:13;26.90;;;9.18;;
12958;SDS011;6544;51.666;6.634;2023-02-02T08:53:42;24.88;;;8.68;;
12958;SDS011;6544;51.666;6.634;2023-02-02T08:56:11;25.48;;;9.35;;
12958;SDS011;6544;51.666;6.634;2023-02-02T08:58:39;23.40;;;8.82;;
12958;SDS011;6544;51.666;6.634;2023-02-02T09:01:10;24.52;;;10.10;;
12958;SDS011;6544;51.666;6.634;2023-02-02T09:03:40;26.10;;;9.25;;
12958;SDS011;6544;51.666;6.634;2023-02-02T09:06:08;25.98;;;9.13;;
12958;SDS011;6544;51.666;6.634;2023-02-02T09:08:37;22.00;;;8.55;;
12958;SDS011;6544;51.666;6.634;2023-02-02T09:11:04;27.00;;;9.55;;
12958;SDS011;6544;51.666;6.634;2023-02-02T09:13:33;21.67;;;9.25;;
12958;SDS011;6544;51.666;6.634;2023-02-02T09:16:00;25.15;;;10.25;;
12958;SDS011;6544;51.666;6.634;2023-02-02T09:18:28;23.90;;;9.20;;
12958;SDS011;6544;51.666;6.634;2023-02-02T09:20:59;27.92;;;10.68;;
12958;SDS011;6544;51.666;6.634;2023-02-02T09:23:28;28.52;;;9.75;;
12958;SDS011;6544;51.666;6.634;2023-02-02T09:25:55;27.23;;;11.23;;
12958;SDS011;6544;51.666;6.634;2023-02-02T09:28:22;27.08;;;9.82;;
12958;SDS011;6544;51.666;6.634;2023-02-02T09:30:49;31.83;;;10.07;;
12958;SDS011;6544;51.666;6.634;2023-02-02T09:33:16;36.10;;;11.07;;
12958;SDS011;6544;51.666;6.634;2023-02-02T09:35:43;30.40;;;10.20;;
12958;SDS011;6544;51.666;6.634;2023-02-02T09:38:11;26.17;;;10.10;;
12958;SDS011;6544;51.666;6.634;2023-02-02T09:40:38;32.42;;;11.40;;
12958;SDS011;6544;51.666;6.634;2023-02-02T09:43:07;25.13;;;10.52;;
12958;SDS011;6544;51.666;6.634;2023-02-02T09:45:51;28.88;;;9.70;;
12958;SDS011;6544;51.666;6.634;2023-02-02T09:48:25;30.25;;;10.27;;
12958;SDS011;6544;51.666;6.634;2023-02-02T09:50:57;26.88;;;9.73;;
12958;SDS011;6544;51.666;6.634;2023-02-02T09:53:34;34.13;;;9.40;;
12958;SDS011;6544;51.666;6.634;2023-02-02T09:56:07;22.73;;;9.02;;
12958;SDS011;6544;51.666;6.634;2023-02-02T09:58:41;26.65;;;7.97;;
12958;SDS011;6544;51.666;6.634;2023-02-02T10:01:14;26.92;;;8.10;;
12958;SDS011;6544;51.666;6.634;2023-02-02T10:03:48;26.90;;;8.50;;
12958;SDS011;6544;51.666;6.634;2023-02-02T10:06:24;25.40;;;7.70;;
12958;SDS011;6544;51.666;6.634;2023-02-02T10:09:00;21.25;;;7.30;;
12958;SDS011;6544;51.666;6.634;2023-02-02T10:11:34;26.02;;;8.15;;
12958;SDS011;6544;51.666;6.634;2023-02-02T10:14:08;26.52;;;8.27;;
12958;SDS011;6544;51.666;6.634;2023-02-02T10:16:42;23.98;;;7.65;;
12958;SDS011;6544;51.666;6.634;2023-02-02T10:19:10;23.38;;;7.15;;
12958;SDS011;6544;51.666;6.634;2023-02-02T10:21:39;22.08;;;7.53;;
12958;SDS011;6544;51.666;6.634;2023-02-02T10:24:14;19.33;;;6.85;;
12958;SDS011;6544;51.666;6.634;2023-02-02T10:26:44;19.95;;;7.00;;
12958;SDS011;6544;51.666;6.634;2023-02-02T10:29:14;26.98;;;7.55;;
12958;SDS011;6544;51.666;6.634;2023-02-02T10:31:43;25.38;;;7.13;;
12958;SDS011;6544;51.666;6.634;2023-02-02T10:34:20;25.10;;;6.80;;
12958;SDS011;6544;51.666;6.634;2023-02-02T10:39:52;21.65;;;7.18;;
12958;SDS011;6544;51.666;6.634;2023-02-02T10:42:29;20.83;;;6.38;;
12958;SDS011;6544;51.666;6.634;2023-02-02T10:45:02;22.92;;;6.05;;
12958;SDS011;6544;51.666;6.634;2023-02-02T10:47:38;18.27;;;6.43;;
12958;SDS011;6544;51.666;6.634;2023-02-02T10:50:15;24.88;;;6.70;;
12958;SDS011;6544;51.666;6.634;2023-02-02T10:52:44;23.33;;;8.05;;
12958;SDS011;6544;51.666;6.634;2023-02-02T10:55:17;21.90;;;7.70;;
12958;SDS011;6544;51.666;6.634;2023-02-02T10:57:57;21.85;;;6.78;;
12958;SDS011;6544;51.666;6.634;2023-02-02T11:00:32;21.52;;;6.40;;
12958;SDS011;6544;51.666;6.634;2023-02-02T11:03:03;18.60;;;6.45;;
12958;SDS011;6544;51.666;6.634;2023-02-02T11:05:31;17.92;;;6.28;;
12958;SDS011;6544;51.666;6.634;2023-02-02T11:08:16;17.17;;;5.97;;
12958;SDS011;6544;51.666;6.634;2023-02-02T11:10:48;21.65;;;6.22;;
12958;SDS011;6544;51.666;6.634;2023-02-02T11:13:20;20.25;;;5.53;;
12958;SDS011;6544;51.666;6.634;2023-02-02T11:18:47;18.52;;;5.70;;
12958;SDS011;6544;51.666;6.634;2023-02-02T11:21:16;19.08;;;5.75;;
12958;SDS011;6544;51.666;6.634;2023-02-02T11:23:49;19.80;;;6.28;;
12958;SDS011;6544;51.666;6.634;2023-02-02T11:26:19;17.60;;;5.75;;
12958;SDS011;6544;51.666;6.634;2023-02-02T11:28:48;26.90;;;5.50;;
12958;SDS011;6544;51.666;6.634;2023-02-02T11:34:09;22.38;;;6.70;;
12958;SDS011;6544;51.666;6.634;2023-02-02T11:36:53;18.30;;;5.72;;
12958;SDS011;6544;51.666;6.634;2023-02-02T11:39:24;18.75;;;5.60;;
12958;SDS011;6544;51.666;6.634;2023-02-02T11:41:58;20.67;;;5.90;;
12958;SDS011;6544;51.666;6.634;2023-02-02T11:44:30;20.50;;;5.25;;
12958;SDS011;6544;51.666;6.634;2023-02-02T11:46:59;23.02;;;5.13;;
12958;SDS011;6544;51.666;6.634;2023-02-02T11:49:30;16.55;;;6.60;;
12958;SDS011;6544;51.666;6.634;2023-02-02T11:52:02;19.92;;;5.40;;
12958;SDS011;6544;51.666;6.634;2023-02-02T11:54:32;18.27;;;5.65;;
12958;SDS011;6544;51.666;6.634;2023-02-02T11:57:01;20.08;;;5.38;;
12958;SDS011;6544;51.666;6.634;2023-02-02T11:59:34;16.77;;;5.30;;
12958;SDS011;6544;51.666;6.634;2023-02-02T12:04:50;20.35;;;6.13;;
12958;SDS011;6544;51.666;6.634;2023-02-02T12:07:21;23.88;;;6.20;;
12958;SDS011;6544;51.666;6.634;2023-02-02T12:09:51;15.82;;;5.38;;
12958;SDS011;6544;51.666;6.634;2023-02-02T12:12:25;19.20;;;5.20;;
12958;SDS011;6544;51.666;6.634;2023-02-02T12:15:02;18.70;;;5.43;;
12958;SDS011;6544;51.666;6.634;2023-02-02T12:17:37;21.17;;;6.68;;
12958;SDS011;6544;51.666;6.634;2023-02-02T12:20:18;18.65;;;5.47;;
12958;SDS011;6544;51.666;6.634;2023-02-02T12:22:57;16.98;;;6.55;;
12958;SDS011;6544;51.666;6.634;2023-02-02T12:25:55;19.30;;;6.22;;
12958;SDS011;6544;51.666;6.634;2023-02-02T12:28:44;22.25;;;6.13;;
12958;SDS011;6544;51.666;6.634;2023-02-02T12:31:23;18.70;;;5.70;;
12958;SDS011;6544;51.666;6.634;2023-02-02T12:33:57;27.63;;;7.00;;
12958;SDS011;6544;51.666;6.634;2023-02-02T12:36:32;28.63;;;6.72;;
12958;SDS011;6544;51.666;6.634;2023-02-02T12:39:12;21.20;;;5.78;;
12958;SDS011;6544;51.666;6.634;2023-02-02T12:41:52;19.77;;;6.85;;
12958;SDS011;6544;51.666;6.634;2023-02-02T12:44:36;22.13;;;8.93;;
12958;SDS011;6544;51.666;6.634;2023-02-02T12:47:12;21.42;;;8.80;;
12958;SDS011;6544;51.666;6.634;2023-02-02T12:49:55;38.55;;;16.08;;
12958;SDS011;6544;51.666;6.634;2023-02-02T12:52:39;19.60;;;6.95;;
12958;SDS011;6544;51.666;6.634;2023-02-02T12:55:20;22.33;;;6.43;;
12958;SDS011;6544;51.666;6.634;2023-02-02T12:57:57;25.45;;;7.20;;
12958;SDS011;6544;51.666;6.634;2023-02-02T13:00:45;23.00;;;6.88;;
12958;SDS011;6544;51.666;6.634;2023-02-02T13:03:27;18.73;;;6.65;;
12958;SDS011;6544;51.666;6.634;2023-02-02T13:06:07;20.17;;;6.88;;
12958;SDS011;6544;51.666;6.634;2023-02-02T13:08:54;27.80;;;8.00;;
12958;SDS011;6544;51.666;6.634;2023-02-02T13:11:31;17.50;;;6.70;;
12958;SDS011;6544;51.666;6.634;2023-02-02T13:14:06;19.38;;;6.53;;
12958;SDS011;6544;51.666;6.634;2023-02-02T13:16:36;23.45;;;6.68;;
12958;SDS011;6544;51.666;6.634;2023-02-02T13:19:06;16.52;;;5.93;;
12958;SDS011;6544;51.666;6.634;2023-02-02T13:21:37;26.20;;;6.70;;
12958;SDS011;6544;51.666;6.634;2023-02-02T13:24:06;20.40;;;6.75;;
12958;SDS011;6544;51.666;6.634;2023-02-02T13:26:41;18.13;;;6.15;;
12958;SDS011;6544;51.666;6.634;2023-02-02T13:29:10;16.60;;;5.75;;
12958;SDS011;6544;51.666;6.634;2023-02-02T13:31:56;16.30;;;5.65;;
12958;SDS011;6544;51.666;6.634;2023-02-02T13:34:33;15.98;;;6.70;;
12958;SDS011;6544;51.666;6.634;2023-02-02T13:37:07;19.98;;;6.10;;
12958;SDS011;6544;51.666;6.634;2023-02-02T13:39:43;19.83;;;7.40;;
12958;SDS011;6544;51.666;6.634;2023-02-02T13:42:16;23.02;;;8.65;;
12958;SDS011;6544;51.666;6.634;2023-02-02T13:44:52;17.40;;;6.25;;
12958;SDS011;6544;51.666;6.634;2023-02-02T13:47:25;17.00;;;5.85;;
12958;SDS011;6544;51.666;6.634;2023-02-02T13:49:59;13.70;;;5.93;;
12958;SDS011;6544;51.666;6.634;2023-02-02T13:52:37;17.65;;;6.03;;
12958;SDS011;6544;51.666;6.634;2023-02-02T13:55:19;22.08;;;7.20;;
12958;SDS011;6544;51.666;6.634;2023-02-02T13:58:15;17.52;;;6.65;;
12958;SDS011;6544;51.666;6.634;2023-02-02T14:00:54;20.85;;;6.55;;
12958;SDS011;6544;51.666;6.634;2023-02-02T14:03:30;17.77;;;6.45;;
12958;SDS011;6544;51.666;6.634;2023-02-02T14:06:03;20.65;;;6.30;;
12958;SDS011;6544;51.666;6.634;2023-02-02T14:08:32;17.70;;;6.22;;
12958;SDS011;6544;51.666;6.634;2023-02-02T14:11:00;24.23;;;6.70;;
12958;SDS011;6544;51.666;6.634;2023-02-02T14:13:33;19.98;;;6.35;;
12958;SDS011;6544;51.666;6.634;2023-02-02T14:19:14;15.73;;;5.43;;
12958;SDS011;6544;51.666;6.634;2023-02-02T14:21:59;21.88;;;6.70;;
12958;SDS011;6544;51.666;6.634;2023-02-02T14:24:42;21.10;;;5.97;;
12958;SDS011;6544;51.666;6.634;2023-02-02T14:30:23;12.98;;;5.13;;
12958;SDS011;6544;51.666;6.634;2023-02-02T14:36:10;19.80;;;6.55;;
12958;SDS011;6544;51.666;6.634;2023-02-02T14:41:45;18.38;;;5.22;;
12958;SDS011;6544;51.666;6.634;2023-02-02T14:45:04;15.90;;;4.57;;
12958;SDS011;6544;51.666;6.634;2023-02-02T14:47:49;14.00;;;6.10;;
12958;SDS011;6544;51.666;6.634;2023-02-02T14:50:21;20.50;;;5.53;;
12958;SDS011;6544;51.666;6.634;2023-02-02T14:52:57;16.42;;;4.93;;
12958;SDS011;6544;51.666;6.634;2023-02-02T14:55:27;15.00;;;5.40;;
12958;SDS011;6544;51.666;6.634;2023-02-02T14:57:55;18.75;;;5.45;;
12958;SDS011;6544;51.666;6.634;2023-02-02T15:00:26;16.42;;;5.78;;
12958;SDS011;6544;51.666;6.634;2023-02-02T15:02:56;19.25;;;6.05;;
12958;SDS011;6544;51.666;6.634;2023-02-02T15:06:03;17.83;;;6.22;;
12958;SDS011;6544;51.666;6.634;2023-02-02T15:08:34;14.82;;;5.63;;
12958;SDS011;6544;51.666;6.634;2023-02-02T15:11:05;15.13;;;6.13;;
12958;SDS011;6544;51.666;6.634;2023-02-02T15:16:40;13.50;;;6.18;;
12958;SDS011;6544;51.666;6.634;2023-02-02T15:19:19;16.25;;;6.72;;
12958;SDS011;6544;51.666;6.634;2023-02-02T15:21:52;16.98;;;7.00;;
12958;SDS011;6544;51.666;6.634;2023-02-02T15:24:25;21.98;;;7.35;;
12958;SDS011;6544;51.666;6.634;2023-02-02T15:26:53;18.50;;;7.05;;
12958;SDS011;6544;51.666;6.634;2023-02-02T15:29:28;17.30;;;7.10;;
12958;SDS011;6544;51.666;6.634;2023-02-02T15:32:02;20.75;;;7.50;;
12958;SDS011;6544;51.666;6.634;2023-02-02T15:34:34;20.30;;;7.50;;
12958;SDS011;6544;51.666;6.634;2023-02-02T15:37:06;16.27;;;7.15;;
12958;SDS011;6544;51.666;6.634;2023-02-02T15:39:39;16.35;;;7.57;;